Flight Track Log - Related Links

Times and Time Zones

All times are in EDT time to prevent confusion due to time zone crossing. See the AWI3778 flight status page for this flight to view local times or setup timezone preferences in your user account.

Time Position Orientation Groundspeed Altitude Reporting Facility
EDT Latitude Longitude Course Direction KTS MPH feet Rate Location/Type
Thu 01:33:16 PM 44.2653 -73.1533 197° South 284 327 7,800  Level Boston Center
Thu 01:34:15 PM 44.1903 -73.1869 198° South 289 333 9,900 1,438 Climbing Boston Center
Thu 01:35:17 PM 44.0961 -73.2092 190° South 324 373 10,700 1,550 Climbing Boston Center
Thu 01:36:00 PM 43.8600 -73.3815 195° South  Level FlightAware Approximate
Thu 01:36:15 PM 44.0003 -73.2222 186° South 348 400 13,000  Level Boston Center
Thu 01:37:00 PM 43.7586 -73.4189 195° South  Level FlightAware Approximate
Thu 01:37:16 PM 43.9186 -73.2989 214° Southwest 353 406 14,800  Level Boston Center
Thu 01:38:16 PM 43.8367 -73.3814 216° Southwest 358 412 16,600 1,650 Climbing Boston Center
Thu 01:39:16 PM 43.7547 -73.4606 215° Southwest 368 423 18,100 1,400 Climbing Boston Center
Thu 01:40:16 PM 43.6725 -73.5394 215° Southwest 368 423 19,400 1,140 Climbing Boston Center
Thu 01:41:17 PM 43.5864 -73.6181 213° Southwest 368 423 20,400 1,041 Climbing Boston Center
Thu 01:42:17 PM 43.5022 -73.7025 216° Southwest 373 429 21,500 1,041 Climbing Boston Center
Thu 01:43:18 PM 43.4158 -73.7864 215° Southwest 379 436 22,500 1,059 Climbing Boston Center
Thu 01:44:16 PM 43.3231 -73.8756 215° Southwest 379 436 23,600 763 Climbing Boston Center
Thu 01:45:16 PM 43.2450 -73.9508 215° Southwest 385 443 24,000 198 Climbing Boston Center
Thu 01:46:17 PM 43.1478 -74.0422 214° Southwest 385 443 24,000  Level Boston Center
Thu 01:47:17 PM 43.0589 -74.1308 216° Southwest 392 451 24,000  Level Boston Center
Thu 01:48:15 PM 42.9681 -74.2164 215° Southwest 397 457 24,000  Level Boston Center
Thu 01:49:16 PM 42.8769 -74.3017 214° Southwest 407 468 24,000  Level Boston Center
Thu 01:50:17 PM 42.7858 -74.3894 215° Southwest 407 468 24,000  Level Boston Center
Thu 01:51:17 PM 42.6947 -74.4769 215° Southwest 407 468 24,000  Level Boston Center
Thu 01:52:15 PM 42.6036 -74.5614 214° Southwest 407 468 24,000  Level Boston Center
Thu 01:53:15 PM 42.5103 -74.6483 214° Southwest 402 463 24,000  Level Boston Center
Thu 01:54:16 PM 42.4275 -74.7269 215° Southwest 402 463 24,000  Level Boston Center
Thu 01:56:19 PM 42.2347 -74.8964 213° Southwest 418 481 24,000 -656 Level New York Center
Thu 01:57:19 PM 42.1358 -74.9825 213° Southwest 418 481 22,000 -1,916 Descending New York Center
Thu 01:58:18 PM 42.0350 -75.0711 213° Southwest 431 496 20,200 -1,513 Descending New York Center
Thu 01:59:18 PM 41.9361 -75.1567 213° Southwest 436 502 19,000 -595 Descending New York Center
Thu 02:00:19 PM 41.8286 -75.2469 212° Southwest 429 494 19,000  Level New York Center
Thu 02:01:19 PM 41.7319 -75.3239 211° Southwest 417 480 19,000 -1,041 Level New York Center
Thu 02:02:20 PM 41.6353 -75.4031 211° Southwest 417 480 16,900 -2,218 Descending New York Center
Thu 02:03:18 PM 41.5514 -75.4694 211° Southwest 412 474 14,600 -2,319 Descending New York Center
Thu 02:04:19 PM 41.4611 -75.5406 211° Southwest 398 458 12,300 -1,289 Descending New York Center
Thu 02:05:19 PM 41.3619 -75.6192 211° Southwest 392 451 12,000 -496 Descending New York Center
Thu 02:06:20 PM 41.2717 -75.6872 210° Southwest 392 451 11,300 -843 Descending New York Center
Thu 02:07:20 PM 41.1633 -75.6878 180° South 373 429 10,300 -661 Descending New York Center
Thu 02:08:18 PM 41.0656 -75.6861 179° South 391 450 10,000 -153 Descending New York Center
Thu 02:09:18 PM 40.9614 -75.6869 180° South 380 437 10,000  Level New York Center
Thu 02:10:19 PM 40.8550 -75.6875 180° South 380 437 10,000  Level New York Center
Thu 02:11:20 PM 40.7428 -75.6847 179° South 380 437 10,000  Level New York Center
Thu 02:12:21 PM 40.6386 -75.6856 180° South 380 437 10,000  Level New York Center
Thu 02:13:19 PM 40.5631 -75.6419 156° South 341 392 10,000  Level New York Center
Thu 02:14:19 PM 40.5089 -75.5425 126° Southeast 328 377 10,000  Level New York Center
Thu 02:15:20 PM 40.4450 -75.4236 125° Southeast 351 404 10,000  Level New York Center
Thu 02:16:20 PM 40.3578 -75.3606 151° Southeast 360 414 10,000 -153 Level New York Center
Thu 02:17:18 PM 40.2800 -75.3200 158° South 346 398 9,700 -1,210 Descending New York Center
Thu 02:18:19 PM 40.1961 -75.2792 160° South 307 353 7,600 -1,266 Descending New York Center
Thu 02:19:26 PM 40.1167 -75.2333 156° South 288 331 7,000 -992 Descending Philadelphia TRACON
Thu 02:20:26 PM 40.0333 -75.2167 171° South 278 320 5,500 -1,450 Descending Philadelphia TRACON
Thu 02:21:26 PM 39.9667 -75.1833 159° South 274 315 4,100 -750 Descending Philadelphia TRACON
Thu 02:22:26 PM 39.9000 -75.1500 159° South 203 234 4,000 -810 Descending Philadelphia TRACON
Thu 02:23:32 PM 39.8500 -75.1333 166° South 202 232 2,400 -1,200 Descending Philadelphia TRACON
Thu 02:24:26 PM 39.8000 -75.1500 194° South 182 209 1,600 -500 Descending Philadelphia TRACON
Thu 02:25:32 PM 39.8000 -75.2000 270° West 167 192 1,400 -476 Descending Philadelphia TRACON
Thu 02:26:32 PM 39.8500 -75.2167 346° North 144 166 600 -800 Descending Philadelphia TRACON

Login

Don't have an account? Register now (free) for customized features, flight alerts, and more!